Time;durP1;ratioP1;P1;durP2;ratioP2;P2;SDS_P1;SDS_P2;PMS_P1;PMS_P2;Temp;Humidity;BMP_temperature;BMP_pressure;BME280_temperature;BME280_humidity;BME280_pressure;Samples;Min_cycle;Max_cycle;Signal;HPM_P1;HPM_P2
2022/09/19 00:01:36;;;;;;;10.75;2.70;;;;;;;10.25;80.68;101711.56;4996480;28;20461;-82
2022/09/19 00:04:14;;;;;;;12.18;2.10;;;;;;;10.27;80.36;101715.13;5014068;28;20053;-82
2022/09/19 00:06:42;;;;;;;6.63;2.42;;;;;;;10.26;80.66;101723.91;5014577;28;20056;-82
2022/09/19 00:09:10;;;;;;;11.57;2.58;;;;;;;10.22;81.10;101714.09;5013946;28;20030;-82
2022/09/19 00:11:39;;;;;;;11.48;2.40;;;;;;;10.18;80.34;101720.16;5013975;28;20042;-82
2022/09/19 00:14:04;;;;;;;7.93;2.50;;;;;;;10.14;80.34;101711.25;5013853;28;20030;-81
2022/09/19 00:16:32;;;;;;;11.85;2.25;;;;;;;10.15;80.91;101713.06;4996289;28;20557;-82
2022/09/19 00:19:00;;;;;;;9.88;2.40;;;;;;;10.18;80.89;101723.69;5014702;28;20037;-82
2022/09/19 00:21:33;;;;;;;11.55;2.50;;;;;;;10.21;81.00;101713.19;5013573;28;20441;-82
2022/09/19 00:26:46;;;;;;;11.32;2.10;;;;;;;10.15;80.48;101718.34;5003615;28;20390;-81
2022/09/19 00:29:15;;;;;;;9.52;2.35;;;;;;;10.10;80.62;101717.28;5017854;28;20521;-81
2022/09/19 00:31:41;;;;;;;12.38;3.35;;;;;;;10.11;80.99;101726.13;5017722;28;20061;-82
2022/09/19 00:34:08;;;;;;;11.00;2.35;;;;;;;10.04;80.87;101718.03;5017391;28;20409;-82
2022/09/19 00:36:37;;;;;;;10.65;2.20;;;;;;;10.07;80.42;101725.16;5000103;28;20026;-82
2022/09/19 00:39:05;;;;;;;14.65;2.40;;;;;;;10.07;80.33;101727.78;5000605;28;20026;-81
2022/09/19 00:41:31;;;;;;;8.82;2.25;;;;;;;10.06;80.20;101731.25;5000039;28;20124;-81
2022/09/19 00:44:03;;;;;;;12.80;2.55;;;;;;;10.08;80.44;101729.59;5017867;28;20030;-82
2022/09/19 00:46:32;;;;;;;9.25;2.20;;;;;;;10.11;81.33;101732.31;5017584;28;20113;-81
2022/09/19 00:49:07;;;;;;;11.25;2.22;;;;;;;10.11;80.16;101727.03;5017461;28;20068;-81
2022/09/19 00:51:36;;;;;;;10.63;2.30;;;;;;;10.10;79.88;101730.50;5017821;28;20033;-82
2022/09/19 00:54:07;;;;;;;11.57;2.15;;;;;;;10.04;80.27;101731.25;4999699;28;20120;-82
2022/09/19 00:56:33;;;;;;;13.32;2.40;;;;;;;10.06;80.41;101725.97;5017416;28;20052;-82
2022/09/19 00:59:01;;;;;;;12.55;2.42;;;;;;;10.08;80.13;101729.59;4999772;28;20033;-82
2022/09/19 01:01:26;;;;;;;10.55;2.25;;;;;;;10.05;80.33;101724.22;5017267;28;20034;-82
2022/09/19 01:03:53;;;;;;;12.10;2.38;;;;;;;10.08;80.41;101726.03;4983690;28;20510;-82
2022/09/19 01:06:41;;;;;;;13.18;2.40;;;;;;;10.03;80.70;101715.38;5000201;28;20034;-81
2022/09/19 01:09:20;;;;;;;12.15;2.35;;;;;;;10.15;80.79;101736.81;5017163;28;20034;-82
2022/09/19 01:12:11;;;;;;;9.63;2.38;;;;;;;10.13;80.61;101734.97;5017008;28;20062;-82
2022/09/19 01:15:00;;;;;;;12.27;2.35;;;;;;;10.12;80.82;101749.03;5017320;28;20022;-82
2022/09/19 01:17:42;;;;;;;9.52;2.10;;;;;;;10.11;80.65;101744.63;5017736;28;20038;-82
2022/09/19 01:20:16;;;;;;;10.75;2.28;;;;;;;10.10;79.87;101746.34;5000228;28;20053;-82
2022/09/19 01:23:06;;;;;;;11.80;2.33;;;;;;;10.07;80.25;101745.41;5017228;28;20033;-82
2022/09/19 01:25:46;;;;;;;11.40;2.40;;;;;;;10.16;80.48;101756.19;4998889;28;20052;-83
2022/09/19 01:28:18;;;;;;;10.00;2.40;;;;;;;10.17;80.67;101750.06;4999236;28;20422;-82
2022/09/19 01:31:16;;;;;;;10.85;2.33;;;;;;;10.18;80.86;101752.72;5017635;28;20088;-82
2022/09/19 01:33:40;;;;;;;9.05;2.35;;;;;;;10.13;80.31;101757.00;5016203;28;20370;-82
2022/09/19 01:36:09;;;;;;;14.85;2.67;;;;;;;10.14;80.31;101755.25;5016268;28;20042;-83
2022/09/19 01:38:38;;;;;;;9.85;2.38;;;;;;;10.08;80.72;101758.63;5016579;28;20033;-83
2022/09/19 01:41:08;;;;;;;9.88;2.30;;;;;;;10.06;80.67;101755.03;4999758;28;20049;-82
2022/09/19 01:43:34;;;;;;;11.20;2.05;;;;;;;10.03;80.62;101755.88;4999991;28;20038;-82
2022/09/19 01:46:07;;;;;;;12.80;2.45;;;;;;;10.06;80.55;101754.16;4998993;28;20038;-81
2022/09/19 01:48:59;;;;;;;11.48;2.40;;;;;;;10.06;80.82;101751.50;5016840;28;20127;-82
2022/09/19 01:51:34;;;;;;;12.70;2.50;;;;;;;10.00;80.83;101747.84;5017076;28;20537;-82
2022/09/19 01:54:13;;;;;;;8.95;2.20;;;;;;;10.06;81.09;101762.94;5017125;28;20107;-82
2022/09/19 01:57:13;;;;;;;9.55;2.30;;;;;;;10.07;81.34;101758.59;5016839;28;20030;-81
2022/09/19 01:59:42;;;;;;;10.13;2.33;;;;;;;10.10;81.15;101751.63;4983644;28;20080;-82
2022/09/19 02:02:21;;;;;;;13.00;2.42;;;;;;;10.12;81.04;101760.50;5016701;28;20029;-81
2022/09/19 02:05:08;;;;;;;9.95;2.22;;;;;;;10.15;81.63;101759.66;5016876;28;20489;-82
2022/09/19 02:07:51;;;;;;;8.00;2.10;;;;;;;10.17;81.39;101760.63;5016994;28;20034;-82
2022/09/19 02:10:26;;;;;;;8.65;2.08;;;;;;;10.16;81.43;101765.00;5016379;28;20080;-82
2022/09/19 02:12:56;;;;;;;12.07;2.30;;;;;;;10.15;81.76;101764.94;4998699;28;20030;-82
2022/09/19 02:15:29;;;;;;;14.13;2.47;;;;;;;10.08;81.33;101750.72;5015756;28;20034;-82
2022/09/19 02:18:01;;;;;;;9.20;2.30;;;;;;;10.06;81.51;101754.16;5016259;28;20566;-82
2022/09/19 02:20:31;;;;;;;14.00;2.43;;;;;;;10.09;81.74;101767.44;5015942;28;20072;-81
2022/09/19 02:23:06;;;;;;;13.05;2.40;;;;;;;10.11;81.53;101763.13;5015480;28;20037;-81
2022/09/19 02:25:34;;;;;;;13.15;2.33;;;;;;;10.08;81.54;101757.75;5016631;28;20045;-82
2022/09/19 02:28:11;;;;;;;10.45;2.20;;;;;;;10.04;81.53;101770.84;5015675;28;20117;-82
2022/09/19 02:30:39;;;;;;;12.73;2.30;;;;;;;10.04;81.46;101770.84;5015940;28;20025;-81
2022/09/19 02:33:06;;;;;;;10.68;2.30;;;;;;;10.06;81.79;101780.56;5015196;28;20034;-82
2022/09/19 02:36:09;;;;;;;9.70;2.15;;;;;;;10.08;82.08;101781.50;4998572;28;20374;-81
2022/09/19 02:39:01;;;;;;;14.35;2.20;;;;;;;10.00;81.78;101782.19;4997877;28;20065;-82
2022/09/19 02:41:37;;;;;;;9.90;2.10;;;;;;;9.91;81.69;101786.31;4971685;28;20041;-82
2022/09/19 02:44:19;;;;;;;10.93;2.30;;;;;;;9.87;82.09;101773.88;5015166;28;20040;-81
2022/09/19 02:47:08;;;;;;;7.35;2.28;;;;;;;9.87;82.54;101777.41;5015294;28;20029;-82
2022/09/19 02:49:47;;;;;;;11.73;2.30;;;;;;;9.92;82.74;101782.81;4997935;28;20034;-82
2022/09/19 02:52:19;;;;;;;10.65;2.33;;;;;;;9.93;82.49;101777.56;5015148;28;20125;-82
2022/09/19 02:54:56;;;;;;;10.52;2.40;;;;;;;9.91;82.15;101781.91;5015576;28;20072;-82
2022/09/19 02:57:25;;;;;;;7.05;1.92;;;;;;;9.99;83.04;101782.16;5015935;28;20080;-82
2022/09/19 02:59:58;;;;;;;11.38;2.53;;;;;;;9.97;82.64;101787.34;5015499;28;20054;-82
2022/09/19 03:02:37;;;;;;;10.07;2.40;;;;;;;9.93;82.74;101780.19;5015040;28;20088;-82
2022/09/19 03:05:08;;;;;;;14.95;2.50;;;;;;;9.96;83.12;101785.56;4997710;28;20026;-82
2022/09/19 03:07:39;;;;;;;9.70;2.33;;;;;;;9.95;82.36;101785.53;5015292;28;20037;-82
2022/09/19 03:10:09;;;;;;;12.60;2.53;;;;;;;9.94;82.48;101789.03;5015221;28;20459;-82
2022/09/19 03:12:40;;;;;;;10.25;2.38;;;;;;;9.97;82.31;101795.28;5014826;28;20034;-82
2022/09/19 03:15:07;;;;;;;10.57;2.50;;;;;;;9.96;82.20;101784.69;5014852;28;20042;-82
2022/09/19 03:17:44;;;;;;;9.98;2.30;;;;;;;9.93;82.25;101776.66;5014975;28;20038;-82
2022/09/19 03:20:12;;;;;;;7.32;2.58;;;;;;;9.89;82.46;101780.06;5015079;28;20073;-81
2022/09/19 03:22:39;;;;;;;15.57;2.60;;;;;;;9.94;82.20;101778.50;5014941;28;20042;-82
2022/09/19 03:25:06;;;;;;;7.18;2.10;;;;;;;10.02;82.10;101795.41;5014882;28;20089;-83
2022/09/19 03:27:32;;;;;;;11.48;2.72;;;;;;;10.00;81.91;101790.09;4996925;28;20466;-84
2022/09/19 03:29:57;;;;;;;13.27;2.67;;;;;;;9.95;82.37;101789.06;5014616;28;20044;-82
2022/09/19 03:32:26;;;;;;;14.35;2.70;;;;;;;9.99;82.28;101788.31;5014178;28;20458;-82
2022/09/19 03:34:55;;;;;;;12.30;2.38;;;;;;;10.01;82.49;101789.22;4997389;28;20094;-83
2022/09/19 03:37:21;;;;;;;12.80;2.50;;;;;;;10.02;82.70;101788.41;4997598;28;20045;-83
2022/09/19 03:39:46;;;;;;;14.35;2.67;;;;;;;10.06;82.59;101801.69;5014996;28;20042;-82
2022/09/19 03:42:14;;;;;;;9.70;2.20;;;;;;;10.04;82.38;101781.41;4996795;28;20034;-82
2022/09/19 03:44:39;;;;;;;8.48;2.20;;;;;;;10.06;82.94;101784.09;5014376;28;20041;-82
2022/09/19 03:47:08;;;;;;;11.18;2.08;;;;;;;10.04;82.62;101794.63;5014288;28;20033;-84
2022/09/19 03:49:34;;;;;;;11.77;2.53;;;;;;;10.02;82.61;101783.13;4996585;28;20508;-82
2022/09/19 03:51:59;;;;;;;10.20;2.22;;;;;;;10.06;82.37;101791.13;5014113;28;20072;-82
2022/09/19 03:54:25;;;;;;;13.88;2.35;;;;;;;10.10;82.32;101793.00;4996783;28;20392;-82
2022/09/19 03:56:50;;;;;;;11.70;2.42;;;;;;;10.10;82.34;101791.25;4963221;28;20502;-82
2022/09/19 03:59:16;;;;;;;10.60;2.28;;;;;;;10.15;81.88;101792.28;4996550;28;20045;-82
2022/09/19 04:01:41;;;;;;;12.00;2.40;;;;;;;10.12;81.98;101796.59;5013807;28;20034;-82
2022/09/19 04:04:07;;;;;;;9.43;2.22;;;;;;;10.12;81.81;101796.59;4997300;28;20033;-83
2022/09/19 04:06:32;;;;;;;8.05;2.10;;;;;;;10.06;82.12;101804.31;5014037;28;20500;-82
2022/09/19 04:09:00;;;;;;;10.52;2.90;;;;;;;10.09;81.98;101809.69;5013677;28;20185;-84
2022/09/19 04:11:27;;;;;;;11.43;2.20;;;;;;;10.09;82.14;101801.78;5014034;28;20225;-83
2022/09/19 04:13:53;;;;;;;6.85;2.13;;;;;;;10.06;82.17;101799.94;4996291;28;20394;-82
2022/09/19 04:16:19;;;;;;;10.25;2.35;;;;;;;10.02;82.10;101806.88;5013620;28;20061;-82
2022/09/19 04:18:50;;;;;;;7.97;2.40;;;;;;;9.99;81.94;101796.22;5013917;28;20065;-82
2022/09/19 04:21:16;;;;;;;13.85;2.45;;;;;;;10.02;82.79;101809.53;5013644;28;20363;-82
2022/09/19 04:23:42;;;;;;;13.80;2.50;;;;;;;9.99;82.45;101817.34;5013526;28;20384;-82
2022/09/19 04:26:10;;;;;;;11.63;2.28;;;;;;;9.99;82.24;101809.44;4997147;28;20034;-82
2022/09/19 04:28:38;;;;;;;8.25;2.13;;;;;;;9.99;82.49;101812.06;5013621;28;20100;-82
2022/09/19 04:31:08;;;;;;;11.45;2.40;;;;;;;9.94;82.12;101812.81;4996638;28;20038;-82
2022/09/19 04:33:36;;;;;;;12.68;2.30;;;;;;;9.94;82.70;101815.44;4996379;28;20601;-82
2022/09/19 04:36:02;;;;;;;14.43;3.00;;;;;;;9.94;82.64;101816.34;5013636;28;20038;-83
2022/09/19 04:38:31;;;;;;;8.52;1.90;;;;;;;9.89;82.83;101802.13;4995963;28;20041;-84
2022/09/19 04:40:56;;;;;;;12.32;2.15;;;;;;;9.95;82.84;101820.75;5013611;28;20470;-82
2022/09/19 04:43:24;;;;;;;8.30;2.20;;;;;;;9.96;82.36;101824.28;5013802;28;20034;-82
2022/09/19 04:45:50;;;;;;;15.43;2.88;;;;;;;9.94;82.37;101832.19;4980213;28;20066;-82
2022/09/19 04:48:19;;;;;;;12.48;2.38;;;;;;;9.87;82.40;101816.09;5014067;28;20113;-82
2022/09/19 04:50:47;;;;;;;10.75;2.00;;;;;;;9.93;83.06;101827.72;4995945;28;20409;-82
2022/09/19 04:53:13;;;;;;;11.00;2.50;;;;;;;9.93;83.27;101829.47;4996297;28;20121;-82
2022/09/19 04:55:39;;;;;;;11.07;2.40;;;;;;;9.89;82.80;101836.44;5013589;28;20184;-84
2022/09/19 04:58:05;;;;;;;10.00;2.28;;;;;;;9.88;82.53;101839.00;4979792;28;20124;-82
2022/09/19 05:00:39;;;;;;;13.25;2.40;;;;;;;9.88;82.58;101837.25;5013537;28;20105;-82
2022/09/19 05:03:11;;;;;;;13.27;3.13;;;;;;;9.86;82.69;101835.44;5014362;28;20462;-82
2022/09/19 05:05:44;;;;;;;12.23;2.85;;;;;;;9.81;82.87;101829.09;5013804;28;20038;-82
2022/09/19 05:08:12;;;;;;;11.20;2.38;;;;;;;9.86;82.76;101840.72;5014888;28;20038;-82
2022/09/19 05:10:38;;;;;;;8.15;2.20;;;;;;;9.83;82.81;101838.88;5017357;28;20038;-82
2022/09/19 05:13:03;;;;;;;8.55;2.13;;;;;;;9.84;82.97;101840.66;5016981;28;20029;-82
2022/09/19 05:15:29;;;;;;;10.43;2.78;;;;;;;9.85;83.08;101845.13;5017373;28;20030;-82
2022/09/19 05:17:55;;;;;;;10.32;2.50;;;;;;;9.87;83.53;101847.78;5016739;28;20033;-82
2022/09/19 05:20:26;;;;;;;10.45;2.38;;;;;;;9.82;83.48;101842.38;5016905;28;20042;-82
2022/09/19 05:22:59;;;;;;;7.15;2.35;;;;;;;9.82;83.50;101845.00;5016716;28;20056;-82
2022/09/19 05:25:27;;;;;;;11.25;3.17;;;;;;;9.85;83.49;101846.81;4998731;28;20570;-81
2022/09/19 05:27:53;;;;;;;10.07;2.30;;;;;;;9.92;83.24;101856.72;5016839;28;20081;-82
2022/09/19 05:30:21;;;;;;;7.70;2.40;;;;;;;9.97;83.59;101852.47;4999421;28;20112;-81
2022/09/19 05:32:47;;;;;;;12.52;2.78;;;;;;;10.00;83.61;101853.47;4999271;28;20471;-81
2022/09/19 05:35:12;;;;;;;10.55;2.38;;;;;;;10.03;83.76;101852.69;5016680;28;20514;-81
2022/09/19 05:37:42;;;;;;;9.40;2.30;;;;;;;10.06;83.79;101854.50;5016563;28;20052;-82
2022/09/19 05:40:10;;;;;;;10.77;2.20;;;;;;;10.13;83.75;101859.09;4999561;28;20042;-82
2022/09/19 05:42:41;;;;;;;11.52;2.40;;;;;;;10.18;84.13;101857.50;5016508;28;20057;-82
2022/09/19 05:45:09;;;;;;;13.32;2.30;;;;;;;10.23;83.52;101864.69;5017201;28;20132;-81
2022/09/19 05:47:34;;;;;;;14.98;2.35;;;;;;;10.29;83.77;101869.31;5016962;28;20057;-84
2022/09/19 05:49:59;;;;;;;9.93;2.50;;;;;;;10.33;83.42;101871.19;4982806;28;20447;-84
2022/09/19 05:55:09;;;;;;;13.15;2.50;;;;;;;10.43;83.39;101875.84;5001765;28;20506;-82
2022/09/19 05:57:35;;;;;;;10.52;2.65;;;;;;;10.48;83.52;101874.22;4999436;28;20026;-82
2022/09/19 06:00:01;;;;;;;14.38;2.72;;;;;;;10.60;83.44;101876.31;4998641;28;20176;-83
2022/09/19 06:02:27;;;;;;;14.43;2.65;;;;;;;10.63;83.01;101876.41;4998365;28;20049;-84
2022/09/19 06:04:52;;;;;;;11.88;2.80;;;;;;;10.73;82.68;101882.81;4998682;28;20363;-81
2022/09/19 06:07:19;;;;;;;11.75;2.42;;;;;;;10.78;82.43;101876.81;5016586;28;20033;-81
2022/09/19 06:09:45;;;;;;;8.15;2.28;;;;;;;10.73;82.56;101875.78;5016006;28;20128;-80
2022/09/19 06:12:10;;;;;;;8.80;2.45;;;;;;;10.73;82.52;101878.44;4998379;28;20061;-81
2022/09/19 06:14:38;;;;;;;8.85;2.60;;;;;;;10.82;81.96;101891.00;5016246;28;20056;-82
2022/09/19 06:17:04;;;;;;;6.75;2.67;;;;;;;10.87;82.50;101889.38;5015781;28;20034;-81
2022/09/19 06:19:29;;;;;;;8.52;2.47;;;;;;;10.91;81.81;101888.59;5015489;28;20038;-81
2022/09/19 06:21:57;;;;;;;10.82;2.15;;;;;;;10.93;82.20;101881.63;4997883;28;20383;-82
2022/09/19 06:24:22;;;;;;;19.35;2.92;;;;;;;10.98;81.76;101892.31;4997856;28;20062;-82
2022/09/19 06:26:48;;;;;;;11.02;2.65;;;;;;;11.03;81.75;101895.97;5015613;28;20513;-81
2022/09/19 06:29:14;;;;;;;13.32;2.58;;;;;;;11.06;81.81;101898.69;4997973;28;20030;-81
2022/09/19 06:31:39;;;;;;;13.70;2.70;;;;;;;11.11;81.43;101906.75;4998156;28;20555;-81
2022/09/19 06:34:05;;;;;;;11.75;2.90;;;;;;;11.15;81.63;101904.22;4981618;28;20084;-82
2022/09/19 06:36:30;;;;;;;11.82;2.42;;;;;;;11.27;81.31;101908.94;5015206;28;20064;-81
2022/09/19 06:38:55;;;;;;;10.93;2.70;;;;;;;11.35;81.46;101907.38;4998220;28;20069;-82
2022/09/19 06:41:21;;;;;;;10.45;2.72;;;;;;;11.42;81.50;101903.09;4997783;28;20466;-86
2022/09/19 06:43:46;;;;;;;11.80;2.40;;;;;;;11.48;81.01;101908.56;5015778;28;20038;-87
2022/09/19 06:46:12;;;;;;;11.23;2.40;;;;;;;11.65;81.38;101909.84;5015379;28;20030;-86
2022/09/19 06:48:37;;;;;;;10.77;2.60;;;;;;;11.76;80.86;101908.31;5015400;28;20041;-86
2022/09/19 06:51:03;;;;;;;11.07;2.40;;;;;;;11.87;80.40;101905.06;5015364;28;20041;-87
2022/09/19 06:53:30;;;;;;;15.55;2.53;;;;;;;12.11;81.31;101913.53;4997648;28;20034;-86
2022/09/19 06:55:56;;;;;;;10.85;2.83;;;;;;;12.27;79.54;101913.00;5015194;28;20030;-86
2022/09/19 06:58:21;;;;;;;9.07;2.42;;;;;;;12.52;80.51;101918.81;5015132;28;20037;-86
2022/09/19 07:00:47;;;;;;;10.75;2.70;;;;;;;12.77;79.29;101918.44;5015423;28;20069;-86
2022/09/19 07:03:15;;;;;;;9.32;2.60;;;;;;;13.03;77.79;101920.66;4997611;28;20037;-87
2022/09/19 07:05:42;;;;;;;14.30;2.53;;;;;;;13.11;76.02;101916.41;5014852;28;20112;-87
2022/09/19 07:08:09;;;;;;;13.57;2.63;;;;;;;13.33;75.77;101927.41;5015722;28;20503;-87
2022/09/19 07:10:36;;;;;;;11.63;2.65;;;;;;;13.52;77.71;101916.22;4983547;28;20065;-88
2022/09/19 07:13:04;;;;;;;11.57;2.50;;;;;;;13.77;74.33;101926.34;5001000;28;20458;-89
2022/09/19 07:15:31;;;;;;;7.20;2.40;;;;;;;13.94;73.99;101933.69;5021739;28;20034;-92
2022/09/19 07:17:57;;;;;;;9.05;2.50;;;;;;;13.98;73.03;101941.72;5015433;28;20038;-90
2022/09/19 07:20:24;;;;;;;14.20;3.00;;;;;;;13.92;72.75;101938.09;5014999;28;20030;-85
2022/09/19 07:23:04;;;;;;;13.05;2.63;;;;;;;13.84;74.11;101953.03;5014360;28;20470;-86
2022/09/19 07:25:31;;;;;;;11.93;2.65;;;;;;;13.68;73.96;101951.88;4996729;28;20056;-85
2022/09/19 07:27:58;;;;;;;10.20;2.40;;;;;;;13.61;74.64;101950.88;5014633;28;20133;-85
2022/09/19 07:30:24;;;;;;;12.18;2.58;;;;;;;13.52;74.99;101959.59;4997327;28;20042;-86
2022/09/19 07:32:50;;;;;;;12.90;2.45;;;;;;;13.46;75.81;101955.97;4997161;28;20034;-89
2022/09/19 07:35:16;;;;;;;13.30;2.70;;;;;;;13.45;76.05;101965.69;5015609;28;20034;-92
2022/09/19 07:37:48;;;;;;;12.85;2.70;;;;;;;13.48;76.23;101963.06;4999276;28;20049;-88
2022/09/19 07:40:14;;;;;;;14.75;2.65;;;;;;;13.47;75.87;101957.72;4997043;28;20065;-87
2022/09/19 07:42:39;;;;;;;13.13;2.60;;;;;;;13.41;76.05;101958.53;5015228;28;20030;-88
2022/09/19 07:45:05;;;;;;;9.68;2.28;;;;;;;13.39;75.45;101951.41;4997090;28;20048;-94
2022/09/19 07:47:30;;;;;;;10.68;2.40;;;;;;;13.30;75.24;101953.91;5014692;28;20108;-95
2022/09/19 07:49:56;;;;;;;8.77;2.20;;;;;;;13.34;75.13;101961.06;4997205;28;20378;-88
2022/09/19 07:52:22;;;;;;;8.63;2.50;;;;;;;13.37;76.16;101967.31;4997525;28;20041;-95
2022/09/19 07:54:49;;;;;;;14.73;2.60;;;;;;;13.43;76.58;101977.13;4999769;28;20553;-88
2022/09/19 07:57:14;;;;;;;11.52;2.60;;;;;;;13.47;76.37;101976.31;4997011;28;20037;-86
2022/09/19 07:59:40;;;;;;;17.00;3.20;;;;;;;13.52;77.09;101974.63;4996486;28;20430;-91
2022/09/19 08:02:08;;;;;;;12.00;2.60;;;;;;;13.60;76.82;101982.72;4996470;28;20042;-90
2022/09/19 08:04:34;;;;;;;14.90;2.70;;;;;;;13.64;76.96;101966.88;5013972;28;20197;-90
2022/09/19 08:07:00;;;;;;;15.80;2.72;;;;;;;13.75;76.33;101977.69;5013920;28;20107;-87
2022/09/19 08:09:26;;;;;;;14.25;2.70;;;;;;;13.83;75.32;101986.63;5014100;28;20030;-90
2022/09/19 08:11:51;;;;;;;13.90;2.75;;;;;;;13.83;75.62;101985.75;4996567;28;20037;-92
2022/09/19 08:14:16;;;;;;;9.68;2.40;;;;;;;13.83;74.66;101986.63;4996435;28;20038;-91
2022/09/19 08:16:43;;;;;;;9.88;2.42;;;;;;;13.80;75.38;101980.41;4964754;28;20084;-92
2022/09/19 08:19:16;;;;;;;14.63;2.50;;;;;;;13.84;75.00;101990.22;4980609;28;20439;-93
2022/09/19 08:21:52;;;;;;;11.93;2.25;;;;;;;13.85;74.81;101995.53;5014717;28;20030;-91
2022/09/19 08:24:23;;;;;;;11.80;2.70;;;;;;;13.80;75.07;101983.06;5014238;28;20041;-93
2022/09/19 08:26:51;;;;;;;12.13;2.53;;;;;;;13.97;75.57;101993.06;5012571;28;20474;-92
2022/09/19 08:29:31;;;;;;;9.27;2.70;;;;;;;14.13;74.57;101990.63;4996153;28;20070;-93
2022/09/19 08:31:58;;;;;;;14.75;3.13;;;;;;;14.38;74.79;101989.22;4966427;28;20037;-90
2022/09/19 08:34:26;;;;;;;13.15;3.20;;;;;;;14.58;74.46;101995.72;5012725;28;20030;-89
2022/09/19 08:36:53;;;;;;;13.05;3.30;;;;;;;14.87;74.38;102003.19;5013620;28;20029;-91
2022/09/19 08:39:19;;;;;;;14.00;2.80;;;;;;;14.90;73.15;101998.78;4995737;28;20025;-88
2022/09/19 08:42:02;;;;;;;13.25;2.88;;;;;;;15.06;73.73;102010.47;5014336;28;20026;-90
2022/09/19 08:45:05;;;;;;;11.13;2.60;;;;;;;15.13;73.52;102014.13;4999037;28;20034;-88
2022/09/19 08:47:36;;;;;;;14.73;2.88;;;;;;;15.07;72.55;101998.06;5000248;28;20462;-92
2022/09/19 08:50:14;;;;;;;14.43;2.78;;;;;;;15.16;73.33;102004.41;5017067;28;20352;-91
2022/09/19 08:52:54;;;;;;;9.90;2.70;;;;;;;15.35;73.17;102007.22;4999771;28;20022;-91
2022/09/19 08:55:26;;;;;;;16.33;3.05;;;;;;;15.82;73.15;101997.00;5017287;28;20030;-91
2022/09/19 08:58:12;;;;;;;14.40;2.90;;;;;;;16.24;71.44;102000.88;5000088;28;20044;-90
2022/09/19 09:00:40;;;;;;;9.43;2.72;;;;;;;16.55;69.01;101998.34;5000773;28;20030;-90
2022/09/19 09:03:14;;;;;;;18.08;3.25;;;;;;;16.89;67.91;101996.75;5017797;28;20054;-91
2022/09/19 09:05:56;;;;;;;16.23;3.17;;;;;;;17.31;66.39;101992.38;5017284;28;20494;-91
2022/09/19 09:08:43;;;;;;;11.52;2.70;;;;;;;17.84;65.90;102003.09;4999839;28;20029;-89
2022/09/19 09:12:09;;;;;;;15.50;3.85;;;;;;;18.33;65.91;102003.03;5017195;28;20029;-92
2022/09/19 09:14:51;;;;;;;16.00;2.72;;;;;;;18.81;60.70;102000.22;4999758;28;20455;-93
2022/09/19 09:17:20;;;;;;;13.05;2.40;;;;;;;19.11;60.95;102002.72;5000406;28;20065;-93
2022/09/19 09:20:00;;;;;;;10.63;2.60;;;;;;;19.34;61.15;101994.53;4999170;28;20397;-93
2022/09/19 09:22:57;;;;;;;11.27;2.38;;;;;;;19.62;61.12;101989.88;5017270;28;20466;-93
2022/09/19 09:25:40;;;;;;;;;;;;;;;;;;;;;
2022/09/19 09:28:27;;;;;;;;;;;;;;;;;;;;;
2022/09/19 09:31:24;;;;;;;;;;;;;;;;;;;;;
2022/09/19 09:34:16;;;;;;;8.05;2.10;;;;;;;20.54;55.09;101980.00;5017317;28;20038;-93
2022/09/19 09:38:06;;;;;;;;;;;;;;;;;;;;;
2022/09/19 09:44:26;;;;;;;10.10;2.20;;;;;;;21.33;52.95;101991.50;4995456;28;20100;-92
2022/09/19 10:04:19;;;;;;;10.77;2.30;;;;;;;21.84;51.59;101997.81;4973134;28;20046;-90
2022/09/19 10:07:38;;;;;;;;;;;;;;;;;;;;;
2022/09/19 10:10:31;;;;;;;7.07;2.00;;;;;;;21.46;50.56;101995.75;4937178;29;20035;-92
2022/09/19 10:13:47;;;;;;;7.25;2.10;;;;;;;20.88;48.83;101991.19;4996117;28;20483;-92
2022/09/19 10:16:33;;;;;;;7.18;1.90;;;;;;;20.07;49.00;101984.97;4984294;28;20037;-90
2022/09/19 10:19:37;;;;;;;9.50;2.20;;;;;;;19.78;51.41;101987.94;4998812;28;20034;-91
2022/09/19 10:22:07;;;;;;;14.30;2.45;;;;;;;19.39;51.84;101995.38;4998994;28;20534;-92
2022/09/19 10:24:51;;;;;;;8.35;2.00;;;;;;;19.09;53.29;102014.34;4998602;28;20474;-91
2022/09/19 10:27:26;;;;;;;9.10;2.33;;;;;;;18.74;53.87;102010.94;5016356;28;20038;-91
2022/09/19 10:30:10;;;;;;;10.18;2.70;;;;;;;18.50;56.47;102011.03;5015457;28;20516;-91
2022/09/19 10:32:43;;;;;;;10.23;2.20;;;;;;;18.34;55.19;102009.28;5015806;28;20026;-92
2022/09/19 10:35:42;;;;;;;8.57;2.25;;;;;;;18.25;56.49;102007.53;5000581;28;20034;-89
2022/09/19 10:38:26;;;;;;;7.93;1.83;;;;;;;17.92;55.97;102009.34;5020096;28;20030;-92
2022/09/19 10:41:01;;;;;;;9.40;1.85;;;;;;;17.87;56.50;102004.91;5001487;28;20041;-88
2022/09/19 10:43:46;;;;;;;9.23;1.95;;;;;;;17.93;55.76;102008.44;5016675;28;20041;-88
2022/09/19 10:46:36;;;;;;;9.10;2.30;;;;;;;17.92;55.19;102008.47;5017440;28;20474;-87
2022/09/19 10:49:06;;;;;;;9.90;2.40;;;;;;;17.99;55.00;102007.56;5015749;28;20033;-86
2022/09/19 10:51:45;;;;;;;6.15;2.13;;;;;;;18.11;56.04;102002.16;5016107;28;20030;-89
2022/09/19 10:54:26;;;;;;;8.15;2.28;;;;;;;18.19;56.43;102000.38;5017913;28;20398;-89
2022/09/19 10:56:58;;;;;;;11.50;2.00;;;;;;;18.08;54.97;102004.00;5017174;28;20481;-91
2022/09/19 10:59:36;;;;;;;11.52;2.15;;;;;;;18.07;54.57;101997.72;5001969;28;20029;-92
2022/09/19 11:02:07;;;;;;;11.82;2.20;;;;;;;18.10;54.40;102000.41;5000160;28;20030;-91
2022/09/19 11:04:35;;;;;;;15.48;2.40;;;;;;;18.17;52.99;102004.84;4999197;28;20053;-91
2022/09/19 11:07:15;;;;;;;6.35;2.10;;;;;;;18.34;54.65;101999.47;4999112;28;20128;-90
2022/09/19 11:09:42;;;;;;;7.38;1.95;;;;;;;18.66;53.81;101998.44;5017364;28;20113;-91
2022/09/19 11:12:15;;;;;;;9.45;2.17;;;;;;;18.83;53.38;101990.38;4999523;28;20038;-91
2022/09/19 11:14:43;;;;;;;7.47;2.00;;;;;;;19.01;51.94;102003.66;5002599;28;20045;-91
2022/09/19 11:17:37;;;;;;;8.88;2.15;;;;;;;19.12;52.36;101999.13;5006444;28;20030;-90
2022/09/19 11:20:16;;;;;;;7.50;2.13;;;;;;;19.26;52.24;101996.34;5009561;28;20030;-90
2022/09/19 11:23:13;;;;;;;10.27;2.30;;;;;;;19.42;52.24;102003.41;5010952;28;20041;-91
2022/09/19 11:26:23;;;;;;;11.45;2.45;;;;;;;19.56;53.38;101997.91;5010050;28;20062;-89
2022/09/19 11:29:20;;;;;;;8.23;2.03;;;;;;;19.56;52.32;101989.88;5009230;28;20026;-87
2022/09/19 11:32:12;;;;;;;7.68;2.08;;;;;;;19.54;51.44;102004.22;5022005;28;20482;-86
2022/09/19 11:34:56;;;;;;;13.98;2.45;;;;;;;19.21;51.86;102008.91;4997113;28;20029;-86
2022/09/19 11:37:53;;;;;;;7.38;2.22;;;;;;;19.09;53.93;102001.81;4996992;28;20099;-84
2022/09/19 11:40:40;;;;;;;11.50;2.13;;;;;;;19.12;53.79;102004.50;5014978;28;20109;-85
2022/09/19 11:43:44;;;;;;;8.52;2.13;;;;;;;19.19;53.51;102000.88;4997345;28;20107;-85
2022/09/19 11:46:31;;;;;;;8.63;2.17;;;;;;;19.35;54.00;102011.50;4996736;28;20114;-86
2022/09/19 11:49:46;;;;;;;7.75;2.08;;;;;;;19.44;53.20;102006.06;4996944;28;20572;-88
2022/09/19 11:52:26;;;;;;;11.32;2.30;;;;;;;19.50;52.79;102003.34;4996001;28;20550;-87
2022/09/19 11:55:02;;;;;;;8.55;2.05;;;;;;;19.34;53.87;102007.91;5014447;28;20037;-85
2022/09/19 11:57:38;;;;;;;7.75;2.08;;;;;;;19.16;59.02;102010.72;4997106;28;20486;-85
2022/09/19 12:00:20;;;;;;;7.43;1.83;;;;;;;18.83;58.94;101996.59;4996684;28;20037;-86
2022/09/19 12:03:14;;;;;;;5.95;2.40;;;;;;;18.72;60.18;102001.16;5014557;28;20061;-85
2022/09/19 12:06:01;;;;;;;11.07;2.20;;;;;;;18.80;61.21;101998.41;5014541;28;20030;-88
2022/09/19 12:08:43;;;;;;;12.00;2.53;;;;;;;18.89;59.53;101993.03;4996639;28;20045;-88
2022/09/19 12:11:21;;;;;;;5.07;1.90;;;;;;;19.00;60.33;101994.72;4997011;28;20030;-88
2022/09/19 12:13:59;;;;;;;10.18;2.08;;;;;;;19.51;59.01;101992.59;5014485;28;20022;-88
2022/09/19 12:16:33;;;;;;;8.70;2.10;;;;;;;19.96;58.82;101979.72;5013753;28;20029;-87
2022/09/19 12:19:04;;;;;;;8.93;2.33;;;;;;;20.26;55.38;101983.88;5014001;28;20035;-89
2022/09/19 12:21:36;;;;;;;6.63;1.80;;;;;;;20.74;53.25;101977.97;5014436;28;20022;-84
2022/09/19 12:26:59;;;;;;;8.73;2.10;;;;;;;21.15;49.39;101979.16;4999901;28;19936;-88